Time;durP1;ratioP1;P1;durP2;ratioP2;P2;SDS_P1;SDS_P2;PMS_P1;PMS_P2;Temp;Humidity;BMP_temperature;BMP_pressure;BME280_temperature;BME280_humidity;BME280_pressure;Samples;Min_cycle;Max_cycle;Signal;HPM_P1;HPM_P2
2022/11/29 00:00:07;;;;;;;22.50;17.90;;;;;;;;;;521618;28;1224;-59
2022/11/29 00:00:23;;;;;;;21.73;18.25;;;;;;;;;;523898;28;1346;-60
2022/11/29 00:00:38;;;;;;;21.85;18.17;;;;;;;;;;525013;28;998;-60
2022/11/29 00:00:53;;;;;;;22.13;18.10;;;;;;;;;;525776;28;1324;-60
2022/11/29 00:01:10;;;;;;;21.63;17.70;;;;;;;;;;525443;27;1037;-60
2022/11/29 00:01:28;;;;;;;22.02;17.00;;;;;;;;;;521660;28;1273;-60
2022/11/29 00:01:43;;;;;;;21.80;16.95;;;;;;;;;;522653;28;1180;-60
2022/11/29 00:01:58;;;;;;;22.40;17.97;;;;;;;;;;523739;28;1289;-60
2022/11/29 00:02:13;;;;;;;23.00;18.53;;;;;;;;;;521505;28;1573;-60
2022/11/29 00:02:29;;;;;;;23.73;18.85;;;;;;;;;;520093;28;1181;-60
2022/11/29 00:02:44;;;;;;;23.00;18.33;;;;;;;;;;521372;28;1217;-60
2022/11/29 00:02:59;;;;;;;22.03;17.77;;;;;;;;;;518834;28;1294;-59
2022/11/29 00:03:15;;;;;;;22.35;17.80;;;;;;;;;;519139;28;1189;-60
2022/11/29 00:03:31;;;;;;;23.70;18.27;;;;;;;;;;518607;28;1409;-59
2022/11/29 00:03:48;;;;;;;22.92;18.00;;;;;;;;;;519540;28;1159;-59
2022/11/29 00:04:04;;;;;;;21.90;17.92;;;;;;;;;;520576;28;1449;-60
2022/11/29 00:04:19;;;;;;;23.48;18.83;;;;;;;;;;521664;28;1066;-60
2022/11/29 00:04:35;;;;;;;24.33;19.00;;;;;;;;;;521241;28;1165;-60
2022/11/29 00:04:51;;;;;;;23.80;18.73;;;;;;;;;;520852;28;1346;-60
2022/11/29 00:05:06;;;;;;;23.10;18.43;;;;;;;;;;518410;28;1284;-60
2022/11/29 00:05:21;;;;;;;24.57;18.40;;;;;;;;;;517596;28;1420;-60
2022/11/29 00:05:37;;;;;;;24.23;18.27;;;;;;;;;;517449;28;1269;-60
2022/11/29 00:05:52;;;;;;;23.17;18.50;;;;;;;;;;518220;28;1300;-60
2022/11/29 00:06:11;;;;;;;22.75;18.20;;;;;;;;;;521718;28;1133;-60
2022/11/29 00:06:29;;;;;;;19.88;16.67;;;;;;;;;;518761;28;1435;-60
2022/11/29 00:06:45;;;;;;;20.70;17.45;;;;;;;;;;519019;28;1070;-60
2022/11/29 00:07:00;;;;;;;22.00;18.07;;;;;;;;;;522800;28;1109;-60
2022/11/29 00:07:15;;;;;;;22.17;18.23;;;;;;;;;;523406;28;1121;-60
2022/11/29 00:07:30;;;;;;;23.02;18.48;;;;;;;;;;522426;28;1226;-60
2022/11/29 00:07:46;;;;;;;22.40;17.90;;;;;;;;;;519734;28;1204;-60
2022/11/29 00:08:02;;;;;;;21.50;17.50;;;;;;;;;;520145;28;1016;-60
2022/11/29 00:08:19;;;;;;;22.25;17.90;;;;;;;;;;518063;28;1487;-60
2022/11/29 00:08:35;;;;;;;22.75;17.90;;;;;;;;;;521136;28;1031;-60
2022/11/29 00:08:50;;;;;;;23.65;18.27;;;;;;;;;;518359;28;1209;-60
2022/11/29 00:09:10;;;;;;;23.95;18.50;;;;;;;;;;521615;28;1055;-60
2022/11/29 00:09:26;;;;;;;22.52;18.70;;;;;;;;;;521109;28;1242;-59
2022/11/29 00:09:41;;;;;;;22.38;18.40;;;;;;;;;;521048;28;1438;-60
2022/11/29 00:09:56;;;;;;;21.85;18.42;;;;;;;;;;522458;28;1070;-61
2022/11/29 00:10:12;;;;;;;21.90;18.63;;;;;;;;;;522509;28;1218;-60
2022/11/29 00:10:27;;;;;;;22.50;18.48;;;;;;;;;;522833;28;1345;-60
2022/11/29 00:10:43;;;;;;;22.97;18.23;;;;;;;;;;520695;28;1070;-60
2022/11/29 00:11:10;;;;;;;23.07;18.33;;;;;;;;;;520593;28;1229;-60
2022/11/29 00:12:12;;;;;;;22.45;18.38;;;;;;;;;;518094;28;1503;-60
2022/11/29 00:12:27;;;;;;;22.13;17.30;;;;;;;;;;522655;28;1128;-60
2022/11/29 00:12:42;;;;;;;22.60;17.30;;;;;;;;;;522021;28;1189;-60
2022/11/29 00:12:57;;;;;;;21.25;16.77;;;;;;;;;;522857;28;1209;-60
2022/11/29 00:13:13;;;;;;;19.30;16.10;;;;;;;;;;520701;28;1261;-60
2022/11/29 00:13:28;;;;;;;20.03;16.70;;;;;;;;;;522329;28;1161;-60
2022/11/29 00:13:43;;;;;;;21.05;17.23;;;;;;;;;;521264;28;1248;-60
2022/11/29 00:13:58;;;;;;;22.47;17.83;;;;;;;;;;523527;28;1034;-60
2022/11/29 00:14:17;;;;;;;23.07;18.27;;;;;;;;;;523691;28;1510;-60
2022/11/29 00:14:32;;;;;;;21.70;17.83;;;;;;;;;;520456;28;1270;-60
2022/11/29 00:14:47;;;;;;;20.92;17.85;;;;;;;;;;517253;28;1353;-60
2022/11/29 00:15:03;;;;;;;22.17;18.37;;;;;;;;;;520647;28;1228;-60
2022/11/29 00:15:18;;;;;;;22.27;18.42;;;;;;;;;;520710;28;1225;-60
2022/11/29 00:15:35;;;;;;;22.87;18.70;;;;;;;;;;519064;28;1194;-61
2022/11/29 00:15:51;;;;;;;24.75;18.80;;;;;;;;;;517779;28;1170;-60
2022/11/29 00:16:09;;;;;;;24.17;18.97;;;;;;;;;;519835;28;1185;-61
2022/11/29 00:16:24;;;;;;;23.52;18.83;;;;;;;;;;522269;28;1125;-60
2022/11/29 00:16:40;;;;;;;23.60;18.53;;;;;;;;;;522090;28;1036;-60
2022/11/29 00:17:00;;;;;;;24.88;19.38;;;;;;;;;;522790;28;1101;-59
2022/11/29 00:17:15;;;;;;;26.70;19.75;;;;;;;;;;522233;28;1343;-59
2022/11/29 00:17:31;;;;;;;23.97;19.17;;;;;;;;;;524223;28;1205;-60
2022/11/29 00:17:47;;;;;;;22.83;18.85;;;;;;;;;;520723;28;1222;-60
2022/11/29 00:18:03;;;;;;;24.08;19.08;;;;;;;;;;522638;28;1677;-60
2022/11/29 00:18:18;;;;;;;24.20;18.77;;;;;;;;;;522065;28;1644;-60
2022/11/29 00:18:34;;;;;;;25.77;18.83;;;;;;;;;;519812;28;1166;-60
2022/11/29 00:18:49;;;;;;;27.65;19.50;;;;;;;;;;520028;28;1174;-60
2022/11/29 00:19:05;;;;;;;26.90;19.83;;;;;;;;;;521745;28;1356;-60
2022/11/29 00:19:21;;;;;;;24.00;18.85;;;;;;;;;;521535;28;1110;-59
2022/11/29 00:19:36;;;;;;;24.38;18.58;;;;;;;;;;517998;28;1411;-60
2022/11/29 00:19:52;;;;;;;25.73;19.33;;;;;;;;;;520034;28;1229;-60
2022/11/29 00:20:11;;;;;;;24.17;19.08;;;;;;;;;;516358;28;1190;-60
2022/11/29 00:20:26;;;;;;;22.83;18.73;;;;;;;;;;520599;28;1238;-61
2022/11/29 00:20:41;;;;;;;23.37;19.07;;;;;;;;;;522319;28;1138;-60
2022/11/29 00:20:57;;;;;;;24.13;19.30;;;;;;;;;;522318;28;1363;-60
2022/11/29 00:21:12;;;;;;;24.17;19.48;;;;;;;;;;524386;28;1061;-60
2022/11/29 00:21:27;;;;;;;23.80;19.40;;;;;;;;;;519601;28;1389;-60
2022/11/29 00:21:43;;;;;;;24.03;19.43;;;;;;;;;;519474;28;1317;-60
2022/11/29 00:21:59;;;;;;;24.00;19.42;;;;;;;;;;521450;28;1160;-60
2022/11/29 00:22:15;;;;;;;23.13;19.02;;;;;;;;;;517647;28;1271;-59
2022/11/29 00:22:30;;;;;;;22.90;18.83;;;;;;;;;;520122;28;1018;-60
2022/11/29 00:22:45;;;;;;;23.77;19.30;;;;;;;;;;518137;28;1149;-60
2022/11/29 00:23:01;;;;;;;24.57;19.80;;;;;;;;;;518731;28;1205;-60
2022/11/29 00:23:16;;;;;;;25.40;19.52;;;;;;;;;;518752;28;1073;-60
2022/11/29 00:23:31;;;;;;;25.13;19.17;;;;;;;;;;519178;28;1159;-60
2022/11/29 00:23:46;;;;;;;22.93;19.23;;;;;;;;;;519252;28;1421;-60
2022/11/29 00:24:02;;;;;;;23.83;19.20;;;;;;;;;;517106;28;1886;-60
2022/11/29 00:24:17;;;;;;;25.83;19.30;;;;;;;;;;519193;28;1062;-60
2022/11/29 00:24:33;;;;;;;24.00;19.40;;;;;;;;;;519468;28;1066;-60
2022/11/29 00:24:48;;;;;;;24.20;19.60;;;;;;;;;;520676;28;1149;-60
2022/11/29 00:25:05;;;;;;;25.17;20.03;;;;;;;;;;519981;28;1385;-60
2022/11/29 00:25:20;;;;;;;25.42;20.20;;;;;;;;;;520792;28;1280;-60
2022/11/29 00:25:37;;;;;;;25.47;19.33;;;;;;;;;;522055;28;1706;-60
2022/11/29 00:25:52;;;;;;;24.60;19.23;;;;;;;;;;524995;28;1117;-60
2022/11/29 00:26:07;;;;;;;25.87;19.50;;;;;;;;;;522919;28;1086;-60
2022/11/29 00:26:23;;;;;;;26.77;19.77;;;;;;;;;;519489;28;1409;-60
2022/11/29 00:26:38;;;;;;;24.53;19.43;;;;;;;;;;521263;28;1137;-60
2022/11/29 00:26:53;;;;;;;23.23;19.00;;;;;;;;;;519919;28;1209;-60
2022/11/29 00:27:08;;;;;;;23.73;19.37;;;;;;;;;;520190;28;1071;-60
2022/11/29 00:27:24;;;;;;;23.38;19.23;;;;;;;;;;521502;28;1215;-60
2022/11/29 00:27:39;;;;;;;25.03;19.20;;;;;;;;;;521075;28;1243;-60
2022/11/29 00:27:54;;;;;;;26.53;19.77;;;;;;;;;;520947;28;1983;-60
2022/11/29 00:28:09;;;;;;;25.60;19.97;;;;;;;;;;522384;28;1161;-60
2022/11/29 00:28:25;;;;;;;24.25;19.70;;;;;;;;;;524552;28;1280;-60
2022/11/29 00:28:40;;;;;;;25.00;20.10;;;;;;;;;;525164;28;1696;-60
2022/11/29 00:28:55;;;;;;;25.07;20.20;;;;;;;;;;524240;28;1269;-60
2022/11/29 00:29:11;;;;;;;24.88;20.23;;;;;;;;;;524751;28;1030;-60
2022/11/29 00:29:28;;;;;;;26.05;20.75;;;;;;;;;;523753;28;1142;-60
2022/11/29 00:29:44;;;;;;;26.20;20.65;;;;;;;;;;524200;28;1660;-60
2022/11/29 00:29:59;;;;;;;26.90;20.70;;;;;;;;;;522974;28;1183;-60
2022/11/29 00:30:14;;;;;;;28.67;20.87;;;;;;;;;;525784;28;1554;-60
2022/11/29 00:30:29;;;;;;;27.48;20.70;;;;;;;;;;524393;28;1090;-60
2022/11/29 00:30:46;;;;;;;25.47;20.63;;;;;;;;;;525831;27;1040;-60
2022/11/29 00:31:21;;;;;;;26.63;20.75;;;;;;;;;;523550;28;1120;-60
2022/11/29 00:31:36;;;;;;;28.52;21.65;;;;;;;;;;525298;28;1110;-60
2022/11/29 00:31:51;;;;;;;28.40;21.52;;;;;;;;;;522652;28;1149;-60
2022/11/29 00:32:07;;;;;;;27.97;21.40;;;;;;;;;;525565;28;1062;-60
2022/11/29 00:32:22;;;;;;;27.93;21.47;;;;;;;;;;523506;28;1223;-60
2022/11/29 00:32:37;;;;;;;28.70;22.27;;;;;;;;;;521751;28;1342;-60
2022/11/29 00:32:53;;;;;;;29.43;22.57;;;;;;;;;;519280;28;1307;-60
2022/11/29 00:33:08;;;;;;;30.90;22.80;;;;;;;;;;519290;28;1213;-60
2022/11/29 00:33:23;;;;;;;31.93;23.33;;;;;;;;;;518994;28;1380;-60
2022/11/29 00:33:38;;;;;;;31.52;23.17;;;;;;;;;;518970;28;1154;-60
2022/11/29 00:33:55;;;;;;;31.03;23.27;;;;;;;;;;517509;28;1370;-60
2022/11/29 00:34:11;;;;;;;29.17;23.20;;;;;;;;;;521035;28;1205;-60
2022/11/29 00:34:27;;;;;;;30.23;23.67;;;;;;;;;;520649;28;1197;-60
2022/11/29 00:34:42;;;;;;;32.97;24.53;;;;;;;;;;519713;28;1130;-60
2022/11/29 00:34:57;;;;;;;32.05;23.90;;;;;;;;;;519768;28;1218;-59
2022/11/29 00:35:13;;;;;;;30.10;23.40;;;;;;;;;;520571;28;1483;-60
2022/11/29 00:35:28;;;;;;;29.77;23.50;;;;;;;;;;518608;28;1496;-60
2022/11/29 00:35:43;;;;;;;30.10;22.63;;;;;;;;;;520273;28;1055;-60
2022/11/29 00:36:00;;;;;;;29.67;22.67;;;;;;;;;;519542;28;1197;-59
2022/11/29 00:36:16;;;;;;;31.40;23.52;;;;;;;;;;518719;28;1343;-59
2022/11/29 00:36:33;;;;;;;32.20;23.38;;;;;;;;;;520342;28;1149;-60
2022/11/29 00:36:48;;;;;;;31.13;23.00;;;;;;;;;;520583;28;1086;-60
2022/11/29 00:37:04;;;;;;;30.83;22.90;;;;;;;;;;521635;28;982;-60
2022/11/29 00:37:19;;;;;;;30.43;23.00;;;;;;;;;;524133;27;1243;-60
2022/11/29 00:37:34;;;;;;;30.25;22.92;;;;;;;;;;522117;28;1117;-60
2022/11/29 00:37:49;;;;;;;30.60;22.93;;;;;;;;;;520476;28;1208;-60
2022/11/29 00:38:05;;;;;;;31.03;23.40;;;;;;;;;;522315;28;1137;-60
2022/11/29 00:38:20;;;;;;;31.15;23.45;;;;;;;;;;519372;28;1217;-60
2022/11/29 00:38:36;;;;;;;29.30;22.67;;;;;;;;;;517012;28;1170;-60
2022/11/29 00:38:51;;;;;;;28.50;22.55;;;;;;;;;;515894;28;1353;-60
2022/11/29 00:39:10;;;;;;;29.60;23.10;;;;;;;;;;519823;28;1204;-60
2022/11/29 00:39:25;;;;;;;31.38;23.60;;;;;;;;;;517663;28;1181;-60
2022/11/29 00:39:41;;;;;;;31.93;23.37;;;;;;;;;;521826;28;1114;-59
2022/11/29 00:39:56;;;;;;;31.42;23.17;;;;;;;;;;521816;28;1175;-60
2022/11/29 00:40:11;;;;;;;30.30;23.33;;;;;;;;;;524214;27;1188;-60
2022/11/29 00:40:27;;;;;;;28.37;22.67;;;;;;;;;;526059;27;1200;-60
2022/11/29 00:40:42;;;;;;;28.80;22.58;;;;;;;;;;524340;27;1227;-59
2022/11/29 00:40:57;;;;;;;31.73;23.73;;;;;;;;;;522512;28;1257;-60
2022/11/29 00:41:13;;;;;;;31.73;23.63;;;;;;;;;;522326;28;1110;-60
2022/11/29 00:41:28;;;;;;;30.30;23.25;;;;;;;;;;524311;28;1137;-60
2022/11/29 00:41:43;;;;;;;30.10;23.60;;;;;;;;;;525364;28;1172;-60
2022/11/29 00:41:59;;;;;;;29.70;23.50;;;;;;;;;;519498;28;1228;-60
2022/11/29 00:42:14;;;;;;;30.92;23.55;;;;;;;;;;518072;28;1235;-60
2022/11/29 00:42:29;;;;;;;31.47;24.07;;;;;;;;;;521927;28;1259;-60
2022/11/29 00:42:45;;;;;;;31.17;24.13;;;;;;;;;;518981;28;1389;-60
2022/11/29 00:43:00;;;;;;;31.30;23.88;;;;;;;;;;520833;28;1087;-59
2022/11/29 00:43:15;;;;;;;29.87;24.03;;;;;;;;;;518596;28;1321;-59
2022/11/29 00:43:31;;;;;;;30.03;24.07;;;;;;;;;;518256;28;1550;-60
2022/11/29 00:43:46;;;;;;;32.05;24.10;;;;;;;;;;520094;28;1106;-60
2022/11/29 00:44:02;;;;;;;31.83;24.13;;;;;;;;;;519105;28;1154;-60
2022/11/29 00:44:17;;;;;;;30.35;24.15;;;;;;;;;;519489;28;1173;-60
2022/11/29 00:44:32;;;;;;;30.63;24.40;;;;;;;;;;518001;28;1513;-60
2022/11/29 00:44:48;;;;;;;32.13;23.98;;;;;;;;;;519109;28;1275;-60
2022/11/29 00:45:03;;;;;;;32.50;24.23;;;;;;;;;;519751;28;1201;-60
2022/11/29 00:45:19;;;;;;;30.42;23.95;;;;;;;;;;519594;28;1134;-60
2022/11/29 00:45:34;;;;;;;30.37;23.30;;;;;;;;;;520200;28;1081;-60
2022/11/29 00:45:49;;;;;;;31.33;23.57;;;;;;;;;;519514;28;1201;-60
2022/11/29 00:46:05;;;;;;;30.90;24.00;;;;;;;;;;518939;28;1325;-59
2022/11/29 00:46:21;;;;;;;29.45;23.77;;;;;;;;;;518990;28;1097;-60
2022/11/29 00:46:36;;;;;;;28.73;22.88;;;;;;;;;;521824;28;1181;-60
2022/11/29 00:46:51;;;;;;;29.83;24.00;;;;;;;;;;522125;28;1079;-60
2022/11/29 00:47:07;;;;;;;30.10;24.15;;;;;;;;;;520575;28;1236;-60
2022/11/29 00:47:22;;;;;;;29.53;22.73;;;;;;;;;;522865;28;1030;-60
2022/11/29 00:47:37;;;;;;;28.55;22.58;;;;;;;;;;521845;28;1185;-60
2022/11/29 00:47:53;;;;;;;29.37;23.30;;;;;;;;;;520375;28;1910;-60
2022/11/29 00:48:08;;;;;;;32.13;23.90;;;;;;;;;;522574;28;1169;-60
2022/11/29 00:48:24;;;;;;;32.97;24.23;;;;;;;;;;517578;28;1309;-60
2022/11/29 00:48:39;;;;;;;31.65;24.38;;;;;;;;;;520336;28;1142;-60
2022/11/29 00:48:54;;;;;;;31.57;24.43;;;;;;;;;;523541;28;1133;-60
2022/11/29 00:49:10;;;;;;;31.67;24.65;;;;;;;;;;522825;28;1231;-60
2022/11/29 00:49:25;;;;;;;31.53;24.47;;;;;;;;;;520646;28;1039;-60
2022/11/29 00:49:40;;;;;;;31.30;24.07;;;;;;;;;;519479;28;1181;-60
2022/11/29 00:49:56;;;;;;;30.63;24.02;;;;;;;;;;522037;28;1006;-60
2022/11/29 00:50:11;;;;;;;31.20;24.03;;;;;;;;;;520319;28;1476;-60
2022/11/29 00:50:26;;;;;;;32.53;23.50;;;;;;;;;;521169;28;1429;-60
2022/11/29 00:50:41;;;;;;;32.45;23.98;;;;;;;;;;519406;28;1443;-60
2022/11/29 00:50:57;;;;;;;32.13;24.27;;;;;;;;;;517696;28;1045;-60
2022/11/29 00:51:12;;;;;;;33.03;24.17;;;;;;;;;;522532;28;1189;-60
2022/11/29 00:51:27;;;;;;;32.65;24.25;;;;;;;;;;521916;28;1026;-60
2022/11/29 00:51:43;;;;;;;32.77;24.30;;;;;;;;;;521394;28;1030;-60
2022/11/29 00:51:58;;;;;;;32.53;24.83;;;;;;;;;;521352;28;1341;-60
2022/11/29 00:52:13;;;;;;;33.75;25.08;;;;;;;;;;520054;28;1150;-60
2022/11/29 00:52:29;;;;;;;35.10;25.33;;;;;;;;;;523253;28;1212;-59
2022/11/29 00:52:44;;;;;;;34.70;25.47;;;;;;;;;;523429;28;1075;-59
2022/11/29 00:52:59;;;;;;;33.72;25.73;;;;;;;;;;521902;28;1200;-59
2022/11/29 00:53:15;;;;;;;34.60;25.77;;;;;;;;;;521126;28;1169;-60
2022/11/29 00:53:31;;;;;;;36.17;25.47;;;;;;;;;;522127;28;1417;-60
2022/11/29 00:53:46;;;;;;;34.40;25.02;;;;;;;;;;523013;28;1240;-59
2022/11/29 00:54:01;;;;;;;35.03;25.33;;;;;;;;;;519641;28;1420;-60
2022/11/29 00:54:17;;;;;;;34.10;25.87;;;;;;;;;;521014;28;1416;-60
2022/11/29 00:54:32;;;;;;;33.83;25.60;;;;;;;;;;517162;28;1727;-60
2022/11/29 00:54:47;;;;;;;35.45;25.52;;;;;;;;;;520372;28;1205;-60
2022/11/29 00:55:03;;;;;;;36.07;25.63;;;;;;;;;;520855;28;1544;-60
2022/11/29 00:55:18;;;;;;;35.42;25.67;;;;;;;;;;522166;28;1302;-60
2022/11/29 00:55:33;;;;;;;33.57;25.53;;;;;;;;;;520820;28;1418;-60
2022/11/29 00:55:51;;;;;;;33.33;25.33;;;;;;;;;;516917;28;1244;-60
2022/11/29 00:56:06;;;;;;;34.22;25.58;;;;;;;;;;521371;28;1491;-60
2022/11/29 00:56:22;;;;;;;33.80;25.70;;;;;;;;;;518724;28;1424;-60
2022/11/29 00:56:37;;;;;;;32.53;24.77;;;;;;;;;;519621;28;1521;-60
2022/11/29 00:56:52;;;;;;;34.40;25.30;;;;;;;;;;514231;28;1282;-60
2022/11/29 00:57:07;;;;;;;35.20;26.30;;;;;;;;;;518648;28;1491;-60
2022/11/29 00:57:23;;;;;;;35.90;26.33;;;;;;;;;;518235;28;1499;-60
2022/11/29 00:57:38;;;;;;;35.47;26.05;;;;;;;;;;519655;28;1246;-60
2022/11/29 00:57:53;;;;;;;35.23;26.20;;;;;;;;;;518878;28;1360;-60
2022/11/29 00:58:08;;;;;;;37.73;26.97;;;;;;;;;;519784;28;1269;-60
2022/11/29 00:58:24;;;;;;;37.30;27.13;;;;;;;;;;522811;28;1279;-60
2022/11/29 00:58:42;;;;;;;36.17;26.90;;;;;;;;;;522710;28;1580;-60
2022/11/29 00:58:57;;;;;;;38.65;27.23;;;;;;;;;;520288;28;2774;-59
2022/11/29 00:59:12;;;;;;;39.67;27.60;;;;;;;;;;519770;28;1273;-59
2022/11/29 00:59:29;;;;;;;39.63;27.50;;;;;;;;;;521547;28;1252;-60
2022/11/29 00:59:44;;;;;;;40.97;27.50;;;;;;;;;;521667;28;1565;-60
2022/11/29 00:59:59;;;;;;;40.60;27.30;;;;;;;;;;522319;28;1300;-60
2022/11/29 01:00:15;;;;;;;39.40;27.27;;;;;;;;;;520553;28;1538;-59
2022/11/29 01:00:31;;;;;;;38.05;27.05;;;;;;;;;;516524;28;1172;-60
2022/11/29 01:00:46;;;;;;;36.53;26.98;;;;;;;;;;519082;28;1491;-60
2022/11/29 01:01:02;;;;;;;36.50;27.33;;;;;;;;;;519622;28;1408;-60
2022/11/29 01:01:18;;;;;;;38.92;27.80;;;;;;;;;;521585;28;1153;-60
2022/11/29 01:01:33;;;;;;;40.60;28.02;;;;;;;;;;518134;28;1268;-60
2022/11/29 01:01:49;;;;;;;40.00;27.57;;;;;;;;;;518500;28;1311;-60
2022/11/29 01:02:04;;;;;;;38.33;26.70;;;;;;;;;;517200;28;1544;-59
2022/11/29 01:02:19;;;;;;;37.17;26.60;;;;;;;;;;515463;28;1240;-60
2022/11/29 01:02:34;;;;;;;37.77;27.43;;;;;;;;;;515683;28;1465;-60
2022/11/29 01:02:50;;;;;;;38.13;27.43;;;;;;;;;;515092;28;1148;-59
2022/11/29 01:03:05;;;;;;;39.70;26.75;;;;;;;;;;516139;28;1269;-60
2022/11/29 01:03:21;;;;;;;40.37;26.50;;;;;;;;;;516571;28;1445;-60
2022/11/29 01:03:36;;;;;;;39.97;26.95;;;;;;;;;;518335;28;1468;-60
2022/11/29 01:03:51;;;;;;;39.23;27.10;;;;;;;;;;519777;28;1360;-59
2022/11/29 01:04:07;;;;;;;38.47;26.88;;;;;;;;;;518399;28;1608;-60
2022/11/29 01:04:22;;;;;;;34.57;25.10;;;;;;;;;;520809;28;1516;-60
2022/11/29 01:04:37;;;;;;;30.40;22.97;;;;;;;;;;520505;28;1264;-60
2022/11/29 01:04:53;;;;;;;30.42;22.63;;;;;;;;;;520593;28;1359;-60
2022/11/29 01:05:08;;;;;;;32.53;23.70;;;;;;;;;;519707;28;1301;-60
2022/11/29 01:05:23;;;;;;;34.33;23.93;;;;;;;;;;517600;28;1267;-60
2022/11/29 01:05:39;;;;;;;30.60;21.93;;;;;;;;;;519972;28;1526;-60
2022/11/29 01:06:06;;;;;;;26.40;20.15;;;;;;;;;;522132;28;1550;-60
2022/11/29 01:06:21;;;;;;;27.80;21.48;;;;;;;;;;520585;28;1344;-60
2022/11/29 01:06:36;;;;;;;28.37;21.90;;;;;;;;;;523466;28;1686;-60
2022/11/29 01:06:52;;;;;;;27.73;21.80;;;;;;;;;;521320;28;1392;-60
2022/11/29 01:07:07;;;;;;;29.07;22.13;;;;;;;;;;522649;28;1680;-60
2022/11/29 01:07:22;;;;;;;30.37;22.37;;;;;;;;;;522633;28;1570;-60
2022/11/29 01:07:38;;;;;;;29.95;22.85;;;;;;;;;;522047;28;1185;-60
2022/11/29 01:07:53;;;;;;;31.43;23.50;;;;;;;;;;521820;28;1959;-60
2022/11/29 01:08:09;;;;;;;30.00;22.03;;;;;;;;;;522187;28;1259;-60
2022/11/29 01:08:25;;;;;;;30.67;21.30;;;;;;;;;;522350;28;1560;-60
2022/11/29 01:08:40;;;;;;;32.30;22.63;;;;;;;;;;522287;28;1549;-60
2022/11/29 01:08:55;;;;;;;29.17;22.00;;;;;;;;;;523231;28;1513;-60
2022/11/29 01:09:11;;;;;;;24.30;19.60;;;;;;;;;;521067;28;1540;-60
2022/11/29 01:09:26;;;;;;;23.60;19.47;;;;;;;;;;520911;28;1405;-60
2022/11/29 01:09:41;;;;;;;26.27;20.80;;;;;;;;;;523233;28;1506;-60
2022/11/29 01:09:56;;;;;;;25.98;20.95;;;;;;;;;;522275;28;1699;-60
2022/11/29 01:10:12;;;;;;;25.03;20.30;;;;;;;;;;522955;28;1185;-60
2022/11/29 01:10:27;;;;;;;27.33;20.87;;;;;;;;;;521454;28;1664;-60
2022/11/29 01:10:43;;;;;;;27.63;20.70;;;;;;;;;;524428;28;1274;-60
2022/11/29 01:11:21;;;;;;;25.02;19.85;;;;;;;;;;521192;28;1569;-60
2022/11/29 01:11:37;;;;;;;24.90;19.73;;;;;;;;;;522829;28;1316;-60
2022/11/29 01:11:52;;;;;;;25.50;20.20;;;;;;;;;;526210;27;2089;-60
2022/11/29 01:12:07;;;;;;;24.60;19.43;;;;;;;;;;520006;28;2219;-60
2022/11/29 01:12:23;;;;;;;25.10;19.50;;;;;;;;;;519581;28;1277;-60
2022/11/29 01:12:39;;;;;;;25.87;20.07;;;;;;;;;;519833;28;1399;-60
2022/11/29 01:12:55;;;;;;;23.02;19.10;;;;;;;;;;520145;28;1540;-59
2022/11/29 01:13:10;;;;;;;21.13;18.13;;;;;;;;;;518821;28;1332;-60
2022/11/29 01:13:26;;;;;;;23.15;18.98;;;;;;;;;;517519;28;1287;-60
2022/11/29 01:13:42;;;;;;;24.67;19.50;;;;;;;;;;517885;28;1080;-60
2022/11/29 01:13:59;;;;;;;22.92;18.58;;;;;;;;;;519476;28;1654;-60
2022/11/29 01:14:15;;;;;;;22.17;18.25;;;;;;;;;;523133;28;1561;-60
2022/11/29 01:14:30;;;;;;;22.80;18.37;;;;;;;;;;523327;28;1287;-60
2022/11/29 01:14:45;;;;;;;23.95;18.58;;;;;;;;;;521398;28;1484;-60
2022/11/29 01:15:03;;;;;;;25.47;18.57;;;;;;;;;;522682;28;1486;-60
2022/11/29 01:15:18;;;;;;;23.95;18.15;;;;;;;;;;522826;28;1661;-60
2022/11/29 01:15:37;;;;;;;22.17;18.20;;;;;;;;;;521719;28;1236;-59
2022/11/29 01:15:58;;;;;;;21.33;17.58;;;;;;;;;;521730;28;1512;-60
2022/11/29 01:16:14;;;;;;;21.13;17.15;;;;;;;;;;522876;28;1124;-60
2022/11/29 01:16:30;;;;;;;20.17;16.92;;;;;;;;;;521474;28;1374;-60
2022/11/29 01:16:46;;;;;;;22.33;17.92;;;;;;;;;;521343;28;1566;-59
2022/11/29 01:17:01;;;;;;;24.90;19.33;;;;;;;;;;520897;28;1374;-60
2022/11/29 01:17:16;;;;;;;26.55;20.50;;;;;;;;;;520405;28;1550;-60
2022/11/29 01:17:37;;;;;;;27.87;21.17;;;;;;;;;;519001;28;1281;-60
2022/11/29 01:17:53;;;;;;;28.10;21.25;;;;;;;;;;521047;28;1288;-60
2022/11/29 01:18:08;;;;;;;27.98;21.33;;;;;;;;;;523621;28;1236;-60
2022/11/29 01:18:26;;;;;;;26.57;21.10;;;;;;;;;;520961;28;1220;-60
2022/11/29 01:18:42;;;;;;;26.55;21.40;;;;;;;;;;521156;28;1317;-60
2022/11/29 01:18:57;;;;;;;27.98;21.50;;;;;;;;;;521021;28;1957;-60
2022/11/29 01:19:13;;;;;;;28.67;21.33;;;;;;;;;;520753;28;1224;-60
2022/11/29 01:19:28;;;;;;;28.80;21.80;;;;;;;;;;519909;28;1328;-60
2022/11/29 01:19:43;;;;;;;28.90;21.80;;;;;;;;;;520949;28;1629;-60
2022/11/29 01:19:59;;;;;;;29.07;21.70;;;;;;;;;;521355;28;1281;-60
2022/11/29 01:20:15;;;;;;;29.35;21.90;;;;;;;;;;519880;28;1229;-60
2022/11/29 01:20:30;;;;;;;30.13;22.03;;;;;;;;;;521375;28;1445;-60
2022/11/29 01:20:45;;;;;;;31.00;22.20;;;;;;;;;;522523;28;1236;-60
2022/11/29 01:21:12;;;;;;;30.63;22.20;;;;;;;;;;522701;28;1345;-60
2022/11/29 01:21:27;;;;;;;30.98;22.27;;;;;;;;;;522538;28;1828;-60
2022/11/29 01:21:43;;;;;;;32.60;22.63;;;;;;;;;;521366;28;1220;-60
2022/11/29 01:21:58;;;;;;;30.15;22.55;;;;;;;;;;520839;28;1298;-60
2022/11/29 01:22:13;;;;;;;28.53;22.57;;;;;;;;;;520087;28;1287;-60
2022/11/29 01:22:28;;;;;;;28.90;22.77;;;;;;;;;;519828;28;1371;-60
2022/11/29 01:22:44;;;;;;;28.33;22.37;;;;;;;;;;517118;28;1320;-60
2022/11/29 01:22:59;;;;;;;28.53;22.37;;;;;;;;;;517928;28;1343;-60
2022/11/29 01:23:15;;;;;;;29.00;22.67;;;;;;;;;;517316;28;1813;-60
2022/11/29 01:23:30;;;;;;;31.02;22.65;;;;;;;;;;518206;28;1288;-60
2022/11/29 01:23:48;;;;;;;31.10;22.42;;;;;;;;;;519269;28;1375;-60
2022/11/29 01:24:03;;;;;;;29.73;22.33;;;;;;;;;;518680;28;1260;-60
2022/11/29 01:24:21;;;;;;;30.23;22.43;;;;;;;;;;520380;28;1285;-60
2022/11/29 01:24:36;;;;;;;30.90;22.08;;;;;;;;;;520204;28;1455;-60
2022/11/29 01:24:51;;;;;;;30.20;22.40;;;;;;;;;;520629;28;1288;-60
2022/11/29 01:25:08;;;;;;;29.30;22.50;;;;;;;;;;519516;28;1122;-60
2022/11/29 01:25:23;;;;;;;28.13;21.77;;;;;;;;;;522204;28;1107;-60
2022/11/29 01:25:38;;;;;;;28.23;22.23;;;;;;;;;;519998;28;1316;-60
2022/11/29 01:26:06;;;;;;;27.27;22.23;;;;;;;;;;522842;28;1093;-60
2022/11/29 01:26:24;;;;;;;28.80;21.55;;;;;;;;;;521581;28;1919;-59
2022/11/29 01:26:39;;;;;;;29.45;22.13;;;;;;;;;;522451;28;1407;-60
2022/11/29 01:26:54;;;;;;;28.73;22.43;;;;;;;;;;519999;28;1297;-60
2022/11/29 01:27:10;;;;;;;30.77;23.23;;;;;;;;;;522073;28;1318;-59
2022/11/29 01:27:25;;;;;;;30.27;23.17;;;;;;;;;;518376;28;1548;-59
2022/11/29 01:27:40;;;;;;;29.97;22.73;;;;;;;;;;519943;28;1058;-60
2022/11/29 01:27:56;;;;;;;31.13;23.08;;;;;;;;;;520183;28;1971;-60
2022/11/29 01:28:11;;;;;;;32.10;22.80;;;;;;;;;;520475;28;1332;-60
2022/11/29 01:28:27;;;;;;;32.93;23.30;;;;;;;;;;518467;28;1244;-59
2022/11/29 01:28:45;;;;;;;31.95;23.30;;;;;;;;;;518158;28;1562;-60
2022/11/29 01:29:00;;;;;;;31.95;23.13;;;;;;;;;;520161;28;1104;-59
2022/11/29 01:29:15;;;;;;;33.13;24.43;;;;;;;;;;520751;28;1283;-59
2022/11/29 01:29:30;;;;;;;32.13;24.55;;;;;;;;;;521495;28;1206;-59
2022/11/29 01:29:46;;;;;;;30.40;23.73;;;;;;;;;;518891;28;1083;-59
2022/11/29 01:30:03;;;;;;;30.73;23.50;;;;;;;;;;519346;28;1121;-59
2022/11/29 01:30:18;;;;;;;31.75;23.25;;;;;;;;;;516619;28;1282;-60
2022/11/29 01:30:33;;;;;;;33.97;23.37;;;;;;;;;;517974;28;1244;-60
2022/11/29 01:30:48;;;;;;;32.88;23.77;;;;;;;;;;516235;28;1229;-60
2022/11/29 01:31:06;;;;;;;30.63;22.67;;;;;;;;;;517196;28;1600;-60
2022/11/29 01:31:27;;;;;;;32.78;22.80;;;;;;;;;;517883;28;1202;-60
2022/11/29 01:31:42;;;;;;;32.25;24.05;;;;;;;;;;518554;28;1814;-60
2022/11/29 01:31:58;;;;;;;29.50;23.00;;;;;;;;;;518668;28;1204;-60
2022/11/29 01:32:13;;;;;;;28.67;22.60;;;;;;;;;;516309;28;1263;-59
2022/11/29 01:32:28;;;;;;;30.35;23.25;;;;;;;;;;517569;28;1194;-60
2022/11/29 01:32:44;;;;;;;30.77;23.13;;;;;;;;;;513496;28;1647;-60
2022/11/29 01:32:59;;;;;;;32.63;23.53;;;;;;;;;;515293;28;1218;-60
2022/11/29 01:33:14;;;;;;;31.90;23.73;;;;;;;;;;514634;28;1314;-60
2022/11/29 01:33:29;;;;;;;31.00;23.33;;;;;;;;;;514785;28;1210;-60
2022/11/29 01:33:45;;;;;;;33.00;23.47;;;;;;;;;;516089;28;1230;-60
2022/11/29 01:34:02;;;;;;;33.65;23.70;;;;;;;;;;515631;28;1083;-60
2022/11/29 01:34:17;;;;;;;33.63;23.92;;;;;;;;;;516371;28;1146;-60
2022/11/29 01:34:33;;;;;;;32.40;23.50;;;;;;;;;;517355;28;1508;-60
2022/11/29 01:34:48;;;;;;;32.10;22.70;;;;;;;;;;517215;28;1114;-60
2022/11/29 01:35:05;;;;;;;32.03;22.80;;;;;;;;;;517101;28;1112;-60
2022/11/29 01:35:20;;;;;;;32.30;23.58;;;;;;;;;;516971;28;1129;-60
2022/11/29 01:35:35;;;;;;;33.88;23.60;;;;;;;;;;517035;28;1226;-60
2022/11/29 01:35:52;;;;;;;33.67;23.63;;;;;;;;;;517542;28;1247;-60
2022/11/29 01:36:10;;;;;;;32.00;23.42;;;;;;;;;;519170;28;1191;-60